Papere Vagabonde

Aviosuperficie Caposile LIKI

Pista 04


Pista 22

Le immagini vengono aggiornate ogni minuto
Cliccare sull'immagine per l'ingrandimento.

METAR LIPZ

LIPZ 181550Z 14004KT CAVOK 16/11 Q1024 NOSIG

TAF LIPZ 181100Z 1812/1918 VRB06KT CAVOK
  TEMPO 1822/1906 2000 BR


      

Alba: 07:30
Tramonto: 18:19

LOW LEVEL SIGWX CHART

ALL WEATHER DATA